sensor_id;sensor_type;location;lat;lon;timestamp;temperature;humidity
52575;DHT22;38468;48.114;-1.684;2023-01-24T00:00:12;4.10;70.60
52575;DHT22;38468;48.114;-1.684;2023-01-24T00:02:12;4.00;70.60
52575;DHT22;38468;48.114;-1.684;2023-01-24T00:04:13;4.00;70.50
52575;DHT22;38468;48.114;-1.684;2023-01-24T00:06:14;4.00;70.40
52575;DHT22;38468;48.114;-1.684;2023-01-24T00:08:17;3.90;70.40
52575;DHT22;38468;48.114;-1.684;2023-01-24T00:10:23;3.90;70.50
52575;DHT22;38468;48.114;-1.684;2023-01-24T00:12:25;3.90;70.60
52575;DHT22;38468;48.114;-1.684;2023-01-24T00:14:25;3.90;70.20
52575;DHT22;38468;48.114;-1.684;2023-01-24T00:16:26;3.90;70.60
52575;DHT22;38468;48.114;-1.684;2023-01-24T00:18:26;3.90;70.50
52575;DHT22;38468;48.114;-1.684;2023-01-24T00:20:27;3.90;70.60
52575;DHT22;38468;48.114;-1.684;2023-01-24T00:22:28;3.90;70.70
52575;DHT22;38468;48.114;-1.684;2023-01-24T00:24:29;3.80;70.60
52575;DHT22;38468;48.114;-1.684;2023-01-24T00:26:30;3.80;70.70
52575;DHT22;38468;48.114;-1.684;2023-01-24T00:28:31;3.70;70.80
52575;DHT22;38468;48.114;-1.684;2023-01-24T00:30:31;3.80;70.80
52575;DHT22;38468;48.114;-1.684;2023-01-24T00:32:32;3.80;70.80
52575;DHT22;38468;48.114;-1.684;2023-01-24T00:34:33;3.80;70.70
52575;DHT22;38468;48.114;-1.684;2023-01-24T00:36:33;3.80;70.80
52575;DHT22;38468;48.114;-1.684;2023-01-24T00:38:34;3.70;70.90
52575;DHT22;38468;48.114;-1.684;2023-01-24T00:40:35;3.80;71.00
52575;DHT22;38468;48.114;-1.684;2023-01-24T00:42:35;3.90;71.00
52575;DHT22;38468;48.114;-1.684;2023-01-24T00:44:36;3.90;71.00
52575;DHT22;38468;48.114;-1.684;2023-01-24T00:46:37;3.80;70.80
52575;DHT22;38468;48.114;-1.684;2023-01-24T00:48:38;3.70;71.10
52575;DHT22;38468;48.114;-1.684;2023-01-24T00:50:39;3.80;70.80
52575;DHT22;38468;48.114;-1.684;2023-01-24T00:52:39;3.80;70.90
52575;DHT22;38468;48.114;-1.684;2023-01-24T00:54:40;3.80;70.70
52575;DHT22;38468;48.114;-1.684;2023-01-24T00:56:41;3.80;70.70
52575;DHT22;38468;48.114;-1.684;2023-01-24T00:58:41;3.80;70.70
52575;DHT22;38468;48.114;-1.684;2023-01-24T01:00:42;3.80;70.30
52575;DHT22;38468;48.114;-1.684;2023-01-24T01:02:43;3.70;70.40
52575;DHT22;38468;48.114;-1.684;2023-01-24T01:04:43;3.70;70.40
52575;DHT22;38468;48.114;-1.684;2023-01-24T01:06:44;3.70;70.40
52575;DHT22;38468;48.114;-1.684;2023-01-24T01:08:45;3.70;70.30
52575;DHT22;38468;48.114;-1.684;2023-01-24T01:10:46;3.60;70.20
52575;DHT22;38468;48.114;-1.684;2023-01-24T01:12:46;3.50;70.30
52575;DHT22;38468;48.114;-1.684;2023-01-24T01:14:47;3.50;70.40
52575;DHT22;38468;48.114;-1.684;2023-01-24T01:16:48;3.50;70.40
52575;DHT22;38468;48.114;-1.684;2023-01-24T01:18:50;3.50;70.40
52575;DHT22;38468;48.114;-1.684;2023-01-24T01:20:53;3.50;70.30
52575;DHT22;38468;48.114;-1.684;2023-01-24T01:22:54;3.60;70.20
52575;DHT22;38468;48.114;-1.684;2023-01-24T01:24:55;3.50;69.90
52575;DHT22;38468;48.114;-1.684;2023-01-24T01:26:56;3.40;70.00
52575;DHT22;38468;48.114;-1.684;2023-01-24T01:28:56;3.40;70.00
52575;DHT22;38468;48.114;-1.684;2023-01-24T01:30:57;3.50;70.00
52575;DHT22;38468;48.114;-1.684;2023-01-24T01:32:58;3.50;70.00
52575;DHT22;38468;48.114;-1.684;2023-01-24T01:34:59;3.40;69.90
52575;DHT22;38468;48.114;-1.684;2023-01-24T01:36:59;3.40;69.90
52575;DHT22;38468;48.114;-1.684;2023-01-24T01:39:00;3.40;70.00
52575;DHT22;38468;48.114;-1.684;2023-01-24T01:41:01;3.40;70.00
52575;DHT22;38468;48.114;-1.684;2023-01-24T01:43:01;3.40;69.90
52575;DHT22;38468;48.114;-1.684;2023-01-24T01:45:29;3.40;69.90
52575;DHT22;38468;48.114;-1.684;2023-01-24T01:47:33;3.40;69.80
52575;DHT22;38468;48.114;-1.684;2023-01-24T01:49:42;3.50;70.00
52575;DHT22;38468;48.114;-1.684;2023-01-24T01:51:47;3.40;69.80
52575;DHT22;38468;48.114;-1.684;2023-01-24T01:53:58;3.40;69.90
52575;DHT22;38468;48.114;-1.684;2023-01-24T01:56:34;3.40;70.10
52575;DHT22;38468;48.114;-1.684;2023-01-24T01:58:40;3.40;70.20
52575;DHT22;38468;48.114;-1.684;2023-01-24T02:00:41;3.40;70.30
52575;DHT22;38468;48.114;-1.684;2023-01-24T02:02:57;3.40;70.00
52575;DHT22;38468;48.114;-1.684;2023-01-24T02:05:21;3.40;70.20
52575;DHT22;38468;48.114;-1.684;2023-01-24T02:07:30;3.40;70.10
52575;DHT22;38468;48.114;-1.684;2023-01-24T02:09:36;3.40;70.30
52575;DHT22;38468;48.114;-1.684;2023-01-24T02:11:38;3.40;70.20
52575;DHT22;38468;48.114;-1.684;2023-01-24T02:13:40;3.40;70.30
52575;DHT22;38468;48.114;-1.684;2023-01-24T02:15:45;3.30;70.30
52575;DHT22;38468;48.114;-1.684;2023-01-24T02:18:05;3.40;70.50
52575;DHT22;38468;48.114;-1.684;2023-01-24T02:20:31;3.40;70.50
52575;DHT22;38468;48.114;-1.684;2023-01-24T02:22:50;3.40;70.40
52575;DHT22;38468;48.114;-1.684;2023-01-24T02:25:17;3.40;70.30
52575;DHT22;38468;48.114;-1.684;2023-01-24T02:27:20;3.40;70.40
52575;DHT22;38468;48.114;-1.684;2023-01-24T02:29:20;3.30;70.30
52575;DHT22;38468;48.114;-1.684;2023-01-24T02:31:22;3.30;70.60
52575;DHT22;38468;48.114;-1.684;2023-01-24T02:33:23;3.40;70.70
52575;DHT22;38468;48.114;-1.684;2023-01-24T02:35:29;3.40;70.50
52575;DHT22;38468;48.114;-1.684;2023-01-24T02:37:32;3.40;70.60
52575;DHT22;38468;48.114;-1.684;2023-01-24T02:39:38;3.50;70.70
52575;DHT22;38468;48.114;-1.684;2023-01-24T02:43:48;3.50;70.50
52575;DHT22;38468;48.114;-1.684;2023-01-24T02:45:50;3.40;70.30
52575;DHT22;38468;48.114;-1.684;2023-01-24T02:47:53;3.30;70.70
52575;DHT22;38468;48.114;-1.684;2023-01-24T02:49:54;3.40;70.80
52575;DHT22;38468;48.114;-1.684;2023-01-24T02:51:54;3.40;70.90
52575;DHT22;38468;48.114;-1.684;2023-01-24T02:54:14;3.40;70.90
52575;DHT22;38468;48.114;-1.684;2023-01-24T02:56:14;3.40;70.80
52575;DHT22;38468;48.114;-1.684;2023-01-24T02:58:34;3.40;70.90
52575;DHT22;38468;48.114;-1.684;2023-01-24T03:00:40;3.40;71.00
52575;DHT22;38468;48.114;-1.684;2023-01-24T03:02:41;3.40;71.00
52575;DHT22;38468;48.114;-1.684;2023-01-24T03:04:42;3.30;71.10
52575;DHT22;38468;48.114;-1.684;2023-01-24T03:06:43;3.40;71.20
52575;DHT22;38468;48.114;-1.684;2023-01-24T03:08:44;3.40;71.20
52575;DHT22;38468;48.114;-1.684;2023-01-24T03:10:44;3.50;71.10
52575;DHT22;38468;48.114;-1.684;2023-01-24T03:12:47;3.40;71.10
52575;DHT22;38468;48.114;-1.684;2023-01-24T03:15:07;3.40;71.00
52575;DHT22;38468;48.114;-1.684;2023-01-24T03:17:26;3.40;70.90
52575;DHT22;38468;48.114;-1.684;2023-01-24T03:19:45;3.40;70.90
52575;DHT22;38468;48.114;-1.684;2023-01-24T03:22:04;3.40;70.90
52575;DHT22;38468;48.114;-1.684;2023-01-24T03:24:23;3.40;70.90
52575;DHT22;38468;48.114;-1.684;2023-01-24T03:26:42;3.40;70.90
52575;DHT22;38468;48.114;-1.684;2023-01-24T03:29:01;3.40;71.00
52575;DHT22;38468;48.114;-1.684;2023-01-24T03:31:20;3.50;71.00
52575;DHT22;38468;48.114;-1.684;2023-01-24T03:33:39;3.40;70.80
52575;DHT22;38468;48.114;-1.684;2023-01-24T03:35:59;3.40;70.80
52575;DHT22;38468;48.114;-1.684;2023-01-24T03:38:02;3.40;70.70
52575;DHT22;38468;48.114;-1.684;2023-01-24T03:40:21;3.40;70.90
52575;DHT22;38468;48.114;-1.684;2023-01-24T03:42:21;3.40;71.00
52575;DHT22;38468;48.114;-1.684;2023-01-24T03:44:22;3.40;71.10
52575;DHT22;38468;48.114;-1.684;2023-01-24T03:46:23;3.40;71.00
52575;DHT22;38468;48.114;-1.684;2023-01-24T03:48:24;3.40;71.20
52575;DHT22;38468;48.114;-1.684;2023-01-24T03:50:36;3.30;71.10
52575;DHT22;38468;48.114;-1.684;2023-01-24T03:52:55;3.30;71.10
52575;DHT22;38468;48.114;-1.684;2023-01-24T03:54:57;3.30;71.20
52575;DHT22;38468;48.114;-1.684;2023-01-24T03:56:58;3.30;71.20
52575;DHT22;38468;48.114;-1.684;2023-01-24T03:58:59;3.20;71.30
52575;DHT22;38468;48.114;-1.684;2023-01-24T04:01:01;3.20;71.40
52575;DHT22;38468;48.114;-1.684;2023-01-24T04:03:02;3.20;71.40
52575;DHT22;38468;48.114;-1.684;2023-01-24T04:05:03;3.20;71.40
52575;DHT22;38468;48.114;-1.684;2023-01-24T04:07:13;3.30;71.30
52575;DHT22;38468;48.114;-1.684;2023-01-24T04:09:13;3.30;71.40
52575;DHT22;38468;48.114;-1.684;2023-01-24T04:11:14;3.30;71.50
52575;DHT22;38468;48.114;-1.684;2023-01-24T04:13:15;3.20;71.20
52575;DHT22;38468;48.114;-1.684;2023-01-24T04:17:18;3.30;71.30
52575;DHT22;38468;48.114;-1.684;2023-01-24T04:19:18;3.40;71.40
52575;DHT22;38468;48.114;-1.684;2023-01-24T04:21:19;3.20;71.20
52575;DHT22;38468;48.114;-1.684;2023-01-24T04:23:19;3.20;71.50
52575;DHT22;38468;48.114;-1.684;2023-01-24T04:25:21;3.30;71.50
52575;DHT22;38468;48.114;-1.684;2023-01-24T04:27:21;3.40;71.50
52575;DHT22;38468;48.114;-1.684;2023-01-24T04:29:22;3.30;71.50
52575;DHT22;38468;48.114;-1.684;2023-01-24T04:31:23;3.40;71.40
52575;DHT22;38468;48.114;-1.684;2023-01-24T04:33:23;3.40;71.30
52575;DHT22;38468;48.114;-1.684;2023-01-24T04:35:26;3.40;71.30
52575;DHT22;38468;48.114;-1.684;2023-01-24T04:37:27;3.40;71.30
52575;DHT22;38468;48.114;-1.684;2023-01-24T04:39:28;3.40;71.30
52575;DHT22;38468;48.114;-1.684;2023-01-24T04:41:28;3.40;71.30
52575;DHT22;38468;48.114;-1.684;2023-01-24T04:43:29;3.40;71.20
52575;DHT22;38468;48.114;-1.684;2023-01-24T04:45:30;3.40;71.30
52575;DHT22;38468;48.114;-1.684;2023-01-24T04:47:30;3.40;71.20
52575;DHT22;38468;48.114;-1.684;2023-01-24T04:49:31;3.40;71.30
52575;DHT22;38468;48.114;-1.684;2023-01-24T04:51:32;3.40;71.20
52575;DHT22;38468;48.114;-1.684;2023-01-24T04:53:33;3.40;71.10
52575;DHT22;38468;48.114;-1.684;2023-01-24T04:55:35;3.40;71.10
52575;DHT22;38468;48.114;-1.684;2023-01-24T04:57:36;3.50;71.20
52575;DHT22;38468;48.114;-1.684;2023-01-24T04:59:37;3.40;71.20
52575;DHT22;38468;48.114;-1.684;2023-01-24T05:01:38;3.40;71.30
52575;DHT22;38468;48.114;-1.684;2023-01-24T05:03:39;3.40;71.30
52575;DHT22;38468;48.114;-1.684;2023-01-24T05:05:39;3.40;71.20
52575;DHT22;38468;48.114;-1.684;2023-01-24T05:07:40;3.30;71.40
52575;DHT22;38468;48.114;-1.684;2023-01-24T05:09:41;3.30;71.50
52575;DHT22;38468;48.114;-1.684;2023-01-24T05:11:41;3.30;71.50
52575;DHT22;38468;48.114;-1.684;2023-01-24T05:13:42;3.30;71.50
52575;DHT22;38468;48.114;-1.684;2023-01-24T05:15:50;3.30;71.50
52575;DHT22;38468;48.114;-1.684;2023-01-24T05:17:51;3.30;71.40
52575;DHT22;38468;48.114;-1.684;2023-01-24T05:19:51;3.30;71.50
52575;DHT22;38468;48.114;-1.684;2023-01-24T05:21:52;3.30;71.50
52575;DHT22;38468;48.114;-1.684;2023-01-24T05:23:53;3.30;71.50
52575;DHT22;38468;48.114;-1.684;2023-01-24T05:25:59;3.30;71.50
52575;DHT22;38468;48.114;-1.684;2023-01-24T05:27:59;3.30;71.40
52575;DHT22;38468;48.114;-1.684;2023-01-24T05:30:00;3.30;71.40
52575;DHT22;38468;48.114;-1.684;2023-01-24T05:32:00;3.30;71.50
52575;DHT22;38468;48.114;-1.684;2023-01-24T05:34:01;3.20;71.50
52575;DHT22;38468;48.114;-1.684;2023-01-24T05:36:06;3.30;71.40
52575;DHT22;38468;48.114;-1.684;2023-01-24T05:38:07;3.30;71.40
52575;DHT22;38468;48.114;-1.684;2023-01-24T05:40:08;3.30;71.50
52575;DHT22;38468;48.114;-1.684;2023-01-24T05:42:09;3.40;71.50
52575;DHT22;38468;48.114;-1.684;2023-01-24T05:44:09;3.30;71.40
52575;DHT22;38468;48.114;-1.684;2023-01-24T05:46:13;3.30;71.40
52575;DHT22;38468;48.114;-1.684;2023-01-24T05:48:14;3.30;71.40
52575;DHT22;38468;48.114;-1.684;2023-01-24T05:50:14;3.40;71.40
52575;DHT22;38468;48.114;-1.684;2023-01-24T05:52:16;3.40;71.50
52575;DHT22;38468;48.114;-1.684;2023-01-24T05:54:21;3.40;71.40
52575;DHT22;38468;48.114;-1.684;2023-01-24T05:56:22;3.40;71.20
52575;DHT22;38468;48.114;-1.684;2023-01-24T05:58:24;3.40;71.10
52575;DHT22;38468;48.114;-1.684;2023-01-24T06:00:25;3.20;71.30
52575;DHT22;38468;48.114;-1.684;2023-01-24T06:02:27;3.40;71.50
52575;DHT22;38468;48.114;-1.684;2023-01-24T06:04:27;3.40;71.20
52575;DHT22;38468;48.114;-1.684;2023-01-24T06:06:28;3.30;71.20
52575;DHT22;38468;48.114;-1.684;2023-01-24T06:08:29;3.30;71.40
52575;DHT22;38468;48.114;-1.684;2023-01-24T06:10:29;3.30;71.50
52575;DHT22;38468;48.114;-1.684;2023-01-24T06:12:30;3.30;71.40
52575;DHT22;38468;48.114;-1.684;2023-01-24T06:14:30;3.30;71.50
52575;DHT22;38468;48.114;-1.684;2023-01-24T06:16:31;3.40;71.40
52575;DHT22;38468;48.114;-1.684;2023-01-24T06:18:32;3.30;71.40
52575;DHT22;38468;48.114;-1.684;2023-01-24T06:20:33;3.30;71.50
52575;DHT22;38468;48.114;-1.684;2023-01-24T06:22:43;3.30;71.50
52575;DHT22;38468;48.114;-1.684;2023-01-24T06:24:45;3.20;71.50
52575;DHT22;38468;48.114;-1.684;2023-01-24T06:26:47;3.30;71.70
52575;DHT22;38468;48.114;-1.684;2023-01-24T06:28:48;3.30;71.50
52575;DHT22;38468;48.114;-1.684;2023-01-24T06:31:21;3.20;71.60
52575;DHT22;38468;48.114;-1.684;2023-01-24T06:33:44;3.20;71.60
52575;DHT22;38468;48.114;-1.684;2023-01-24T06:37:55;3.40;71.60
52575;DHT22;38468;48.114;-1.684;2023-01-24T06:39:58;3.40;71.60
52575;DHT22;38468;48.114;-1.684;2023-01-24T06:41:59;3.30;71.50
52575;DHT22;38468;48.114;-1.684;2023-01-24T06:44:00;3.30;71.70
52575;DHT22;38468;48.114;-1.684;2023-01-24T06:46:01;3.30;71.70
52575;DHT22;38468;48.114;-1.684;2023-01-24T06:48:02;3.40;71.60
52575;DHT22;38468;48.114;-1.684;2023-01-24T06:50:03;3.40;71.60
52575;DHT22;38468;48.114;-1.684;2023-01-24T06:52:05;3.30;71.60
52575;DHT22;38468;48.114;-1.684;2023-01-24T06:54:06;3.30;71.70
52575;DHT22;38468;48.114;-1.684;2023-01-24T06:56:07;3.40;71.70
52575;DHT22;38468;48.114;-1.684;2023-01-24T06:58:08;3.40;71.80
52575;DHT22;38468;48.114;-1.684;2023-01-24T07:00:09;3.40;71.60
52575;DHT22;38468;48.114;-1.684;2023-01-24T07:02:10;3.40;71.60
52575;DHT22;38468;48.114;-1.684;2023-01-24T07:04:11;3.40;71.60
52575;DHT22;38468;48.114;-1.684;2023-01-24T07:06:12;3.40;71.70
52575;DHT22;38468;48.114;-1.684;2023-01-24T07:08:13;3.50;71.60
52575;DHT22;38468;48.114;-1.684;2023-01-24T07:10:14;3.40;71.50
52575;DHT22;38468;48.114;-1.684;2023-01-24T07:12:16;3.40;71.60
52575;DHT22;38468;48.114;-1.684;2023-01-24T07:14:18;3.50;71.60
52575;DHT22;38468;48.114;-1.684;2023-01-24T07:16:18;3.40;71.60
52575;DHT22;38468;48.114;-1.684;2023-01-24T07:18:19;3.40;71.40
52575;DHT22;38468;48.114;-1.684;2023-01-24T07:20:21;3.40;71.60
52575;DHT22;38468;48.114;-1.684;2023-01-24T07:22:21;3.40;71.50
52575;DHT22;38468;48.114;-1.684;2023-01-24T07:24:29;3.40;71.60
52575;DHT22;38468;48.114;-1.684;2023-01-24T07:26:30;3.40;71.70
52575;DHT22;38468;48.114;-1.684;2023-01-24T07:28:31;3.50;71.50
52575;DHT22;38468;48.114;-1.684;2023-01-24T07:30:32;3.50;71.40
52575;DHT22;38468;48.114;-1.684;2023-01-24T07:32:32;3.40;71.20
52575;DHT22;38468;48.114;-1.684;2023-01-24T07:34:33;3.50;71.30
52575;DHT22;38468;48.114;-1.684;2023-01-24T07:36:34;3.40;71.10
52575;DHT22;38468;48.114;-1.684;2023-01-24T07:38:34;3.40;71.40
52575;DHT22;38468;48.114;-1.684;2023-01-24T07:40:36;3.40;71.40
52575;DHT22;38468;48.114;-1.684;2023-01-24T07:42:37;3.40;71.40
52575;DHT22;38468;48.114;-1.684;2023-01-24T07:44:37;3.50;71.30
52575;DHT22;38468;48.114;-1.684;2023-01-24T07:46:38;3.40;71.20
52575;DHT22;38468;48.114;-1.684;2023-01-24T07:48:39;3.40;71.40
52575;DHT22;38468;48.114;-1.684;2023-01-24T07:50:39;3.30;71.30
52575;DHT22;38468;48.114;-1.684;2023-01-24T07:52:40;3.30;71.40
52575;DHT22;38468;48.114;-1.684;2023-01-24T07:54:41;3.30;71.50
52575;DHT22;38468;48.114;-1.684;2023-01-24T07:56:41;3.40;71.50
52575;DHT22;38468;48.114;-1.684;2023-01-24T07:58:42;3.40;71.40
52575;DHT22;38468;48.114;-1.684;2023-01-24T08:00:43;3.40;71.20
52575;DHT22;38468;48.114;-1.684;2023-01-24T08:02:44;3.40;71.20
52575;DHT22;38468;48.114;-1.684;2023-01-24T08:04:45;3.40;71.20
52575;DHT22;38468;48.114;-1.684;2023-01-24T08:06:46;3.50;71.20
52575;DHT22;38468;48.114;-1.684;2023-01-24T08:09:05;3.40;71.20
52575;DHT22;38468;48.114;-1.684;2023-01-24T08:11:06;3.60;71.30
52575;DHT22;38468;48.114;-1.684;2023-01-24T08:13:06;3.60;71.10
52575;DHT22;38468;48.114;-1.684;2023-01-24T08:15:07;3.60;71.00
52575;DHT22;38468;48.114;-1.684;2023-01-24T08:17:09;3.40;70.90
52575;DHT22;38468;48.114;-1.684;2023-01-24T08:19:10;3.40;71.00
52575;DHT22;38468;48.114;-1.684;2023-01-24T08:21:11;3.40;71.20
52575;DHT22;38468;48.114;-1.684;2023-01-24T08:23:11;3.40;71.30
52575;DHT22;38468;48.114;-1.684;2023-01-24T08:25:12;3.40;71.30
52575;DHT22;38468;48.114;-1.684;2023-01-24T08:27:13;3.40;71.30
52575;DHT22;38468;48.114;-1.684;2023-01-24T08:29:13;3.40;71.40
52575;DHT22;38468;48.114;-1.684;2023-01-24T08:31:14;3.40;71.30
52575;DHT22;38468;48.114;-1.684;2023-01-24T08:33:14;3.40;71.60
52575;DHT22;38468;48.114;-1.684;2023-01-24T08:35:19;3.40;71.50
52575;DHT22;38468;48.114;-1.684;2023-01-24T08:37:19;3.40;71.40
52575;DHT22;38468;48.114;-1.684;2023-01-24T08:39:20;3.40;71.40
52575;DHT22;38468;48.114;-1.684;2023-01-24T08:41:21;3.50;71.50
52575;DHT22;38468;48.114;-1.684;2023-01-24T08:43:21;3.40;71.50
52575;DHT22;38468;48.114;-1.684;2023-01-24T08:45:22;3.50;71.50
52575;DHT22;38468;48.114;-1.684;2023-01-24T08:47:23;3.50;71.50
52575;DHT22;38468;48.114;-1.684;2023-01-24T08:49:23;3.40;71.40
52575;DHT22;38468;48.114;-1.684;2023-01-24T08:51:25;3.40;71.50
52575;DHT22;38468;48.114;-1.684;2023-01-24T08:53:25;3.50;71.50
52575;DHT22;38468;48.114;-1.684;2023-01-24T08:55:26;3.50;71.60
52575;DHT22;38468;48.114;-1.684;2023-01-24T08:57:27;3.40;71.70
52575;DHT22;38468;48.114;-1.684;2023-01-24T08:59:27;3.40;71.70
52575;DHT22;38468;48.114;-1.684;2023-01-24T09:01:28;3.50;71.80
52575;DHT22;38468;48.114;-1.684;2023-01-24T09:03:29;3.50;71.90
52575;DHT22;38468;48.114;-1.684;2023-01-24T09:05:30;3.60;71.90
52575;DHT22;38468;48.114;-1.684;2023-01-24T09:07:30;3.50;71.70
52575;DHT22;38468;48.114;-1.684;2023-01-24T09:09:31;3.60;71.70
52575;DHT22;38468;48.114;-1.684;2023-01-24T09:11:32;3.60;71.60
52575;DHT22;38468;48.114;-1.684;2023-01-24T09:13:32;3.60;71.70
52575;DHT22;38468;48.114;-1.684;2023-01-24T09:15:33;3.70;71.60
52575;DHT22;38468;48.114;-1.684;2023-01-24T09:17:34;3.70;71.70
52575;DHT22;38468;48.114;-1.684;2023-01-24T09:19:34;3.70;71.60
52575;DHT22;38468;48.114;-1.684;2023-01-24T09:21:35;3.60;71.70
52575;DHT22;38468;48.114;-1.684;2023-01-24T09:23:36;3.60;71.80
52575;DHT22;38468;48.114;-1.684;2023-01-24T09:25:36;3.60;71.70
52575;DHT22;38468;48.114;-1.684;2023-01-24T09:27:38;3.60;71.70
52575;DHT22;38468;48.114;-1.684;2023-01-24T09:29:40;3.70;71.60
52575;DHT22;38468;48.114;-1.684;2023-01-24T09:31:41;3.60;71.60
52575;DHT22;38468;48.114;-1.684;2023-01-24T09:33:42;3.70;71.60
52575;DHT22;38468;48.114;-1.684;2023-01-24T09:35:51;3.70;71.60
52575;DHT22;38468;48.114;-1.684;2023-01-24T09:37:52;3.80;71.60
52575;DHT22;38468;48.114;-1.684;2023-01-24T09:39:53;3.80;71.60
52575;DHT22;38468;48.114;-1.684;2023-01-24T09:47:51;3.70;71.30
52575;DHT22;38468;48.114;-1.684;2023-01-24T09:49:37;3.90;71.50
52575;DHT22;38468;48.114;-1.684;2023-01-24T09:51:50;3.90;71.40
52575;DHT22;38468;48.114;-1.684;2023-01-24T09:53:53;3.90;71.40
52575;DHT22;38468;48.114;-1.684;2023-01-24T09:55:58;4.00;71.30
52575;DHT22;38468;48.114;-1.684;2023-01-24T10:00:12;3.80;71.30
52575;DHT22;38468;48.114;-1.684;2023-01-24T10:02:17;3.80;71.30
52575;DHT22;38468;48.114;-1.684;2023-01-24T10:04:31;3.90;71.40
52575;DHT22;38468;48.114;-1.684;2023-01-24T10:06:34;3.80;71.20
52575;DHT22;38468;48.114;-1.684;2023-01-24T10:09:00;3.90;71.20
52575;DHT22;38468;48.114;-1.684;2023-01-24T10:11:14;3.90;71.20
52575;DHT22;38468;48.114;-1.684;2023-01-24T10:24:32;3.90;71.00
52575;DHT22;38468;48.114;-1.684;2023-01-24T10:26:41;4.00;70.80
52575;DHT22;38468;48.114;-1.684;2023-01-24T10:28:54;4.00;70.70
52575;DHT22;38468;48.114;-1.684;2023-01-24T10:31:03;4.10;70.60
52575;DHT22;38468;48.114;-1.684;2023-01-24T10:33:15;4.00;70.50
52575;DHT22;38468;48.114;-1.684;2023-01-24T10:35:38;4.10;70.60
52575;DHT22;38468;48.114;-1.684;2023-01-24T10:37:44;4.10;70.60
52575;DHT22;38468;48.114;-1.684;2023-01-24T10:39:46;4.10;70.60
52575;DHT22;38468;48.114;-1.684;2023-01-24T10:41:47;4.00;70.50
52575;DHT22;38468;48.114;-1.684;2023-01-24T10:43:58;4.10;70.50
52575;DHT22;38468;48.114;-1.684;2023-01-24T10:46:10;4.10;70.30
52575;DHT22;38468;48.114;-1.684;2023-01-24T10:48:39;4.20;70.40
52575;DHT22;38468;48.114;-1.684;2023-01-24T10:50:43;4.20;70.40
52575;DHT22;38468;48.114;-1.684;2023-01-24T10:52:44;4.10;70.20
52575;DHT22;38468;48.114;-1.684;2023-01-24T10:54:52;4.10;70.30
52575;DHT22;38468;48.114;-1.684;2023-01-24T10:56:53;4.10;70.40
52575;DHT22;38468;48.114;-1.684;2023-01-24T10:59:14;4.20;70.40
52575;DHT22;38468;48.114;-1.684;2023-01-24T11:01:21;4.20;70.40
52575;DHT22;38468;48.114;-1.684;2023-01-24T11:03:27;4.20;70.30
52575;DHT22;38468;48.114;-1.684;2023-01-24T11:05:46;4.30;70.30
52575;DHT22;38468;48.114;-1.684;2023-01-24T11:07:53;4.20;70.00
52575;DHT22;38468;48.114;-1.684;2023-01-24T11:09:54;4.30;70.10
52575;DHT22;38468;48.114;-1.684;2023-01-24T11:11:56;4.20;70.00
52575;DHT22;38468;48.114;-1.684;2023-01-24T11:14:01;4.30;70.10
52575;DHT22;38468;48.114;-1.684;2023-01-24T11:18:16;4.30;70.00
52575;DHT22;38468;48.114;-1.684;2023-01-24T11:20:29;4.40;70.20
52575;DHT22;38468;48.114;-1.684;2023-01-24T11:22:29;4.40;70.10
52575;DHT22;38468;48.114;-1.684;2023-01-24T11:24:43;4.40;69.90
52575;DHT22;38468;48.114;-1.684;2023-01-24T11:29:09;4.50;69.70
52575;DHT22;38468;48.114;-1.684;2023-01-24T11:31:25;4.50;69.60
52575;DHT22;38468;48.114;-1.684;2023-01-24T11:36:01;4.40;69.70
52575;DHT22;38468;48.114;-1.684;2023-01-24T11:38:16;4.40;69.80
52575;DHT22;38468;48.114;-1.684;2023-01-24T11:47:27;4.50;68.80
52575;DHT22;38468;48.114;-1.684;2023-01-24T11:58:28;4.60;69.10
52575;DHT22;38468;48.114;-1.684;2023-01-24T12:11:57;4.80;69.10
52575;DHT22;38468;48.114;-1.684;2023-01-24T12:21:23;4.80;69.00
52575;DHT22;38468;48.114;-1.684;2023-01-24T12:25:49;4.90;69.20
52575;DHT22;38468;48.114;-1.684;2023-01-24T12:27:55;4.90;69.20
52575;DHT22;38468;48.114;-1.684;2023-01-24T12:30:36;5.00;69.00
52575;DHT22;38468;48.114;-1.684;2023-01-24T12:32:31;5.10;68.80
52575;DHT22;38468;48.114;-1.684;2023-01-24T12:34:51;5.00;68.60
52575;DHT22;38468;48.114;-1.684;2023-01-24T12:37:01;5.00;68.70
52575;DHT22;38468;48.114;-1.684;2023-01-24T12:39:19;5.00;68.70
52575;DHT22;38468;48.114;-1.684;2023-01-24T12:41:35;5.10;68.70
52575;DHT22;38468;48.114;-1.684;2023-01-24T12:46:04;5.10;68.50
52575;DHT22;38468;48.114;-1.684;2023-01-24T12:48:12;5.10;68.40
52575;DHT22;38468;48.114;-1.684;2023-01-24T12:50:30;5.10;68.30
52575;DHT22;38468;48.114;-1.684;2023-01-24T12:54:51;5.00;68.50
52575;DHT22;38468;48.114;-1.684;2023-01-24T12:59:08;4.90;68.50
52575;DHT22;38468;48.114;-1.684;2023-01-24T13:04:12;4.90;68.70
52575;DHT22;38468;48.114;-1.684;2023-01-24T13:13:05;4.70;68.30
52575;DHT22;38468;48.114;-1.684;2023-01-24T13:15:18;4.60;68.70
52575;DHT22;38468;48.114;-1.684;2023-01-24T13:21:51;4.90;68.70
52575;DHT22;38468;48.114;-1.684;2023-01-24T13:31:22;5.00;68.70
52575;DHT22;38468;48.114;-1.684;2023-01-24T13:33:43;5.00;68.50
52575;DHT22;38468;48.114;-1.684;2023-01-24T13:35:51;4.90;68.80
52575;DHT22;38468;48.114;-1.684;2023-01-24T13:40:29;4.90;68.30
52575;DHT22;38468;48.114;-1.684;2023-01-24T13:42:37;4.90;68.70
52575;DHT22;38468;48.114;-1.684;2023-01-24T13:44:38;4.90;68.80
52575;DHT22;38468;48.114;-1.684;2023-01-24T13:48:54;4.90;68.70
52575;DHT22;38468;48.114;-1.684;2023-01-24T13:51:31;4.90;68.80
52575;DHT22;38468;48.114;-1.684;2023-01-24T13:56:02;4.90;68.90
52575;DHT22;38468;48.114;-1.684;2023-01-24T14:00:17;4.90;68.70
52575;DHT22;38468;48.114;-1.684;2023-01-24T14:02:33;4.90;68.70
52575;DHT22;38468;48.114;-1.684;2023-01-24T14:04:44;4.80;69.10
52575;DHT22;38468;48.114;-1.684;2023-01-24T14:06:45;4.90;69.20
52575;DHT22;38468;48.114;-1.684;2023-01-24T14:08:51;4.90;69.00
52575;DHT22;38468;48.114;-1.684;2023-01-24T14:12:56;5.10;68.70
52575;DHT22;38468;48.114;-1.684;2023-01-24T14:17:43;5.10;68.50
52575;DHT22;38468;48.114;-1.684;2023-01-24T14:19:47;5.10;68.00
52575;DHT22;38468;48.114;-1.684;2023-01-24T14:21:55;5.10;67.80
52575;DHT22;38468;48.114;-1.684;2023-01-24T14:24:06;5.10;67.90
52575;DHT22;38468;48.114;-1.684;2023-01-24T14:26:21;5.10;67.90
52575;DHT22;38468;48.114;-1.684;2023-01-24T14:28:32;5.10;67.90
52575;DHT22;38468;48.114;-1.684;2023-01-24T14:30:42;5.10;67.70
52575;DHT22;38468;48.114;-1.684;2023-01-24T14:32:49;5.00;67.50
52575;DHT22;38468;48.114;-1.684;2023-01-24T14:35:16;5.00;67.80
52575;DHT22;38468;48.114;-1.684;2023-01-24T14:37:18;5.00;68.20
52575;DHT22;38468;48.114;-1.684;2023-01-24T14:39:25;5.00;68.40
52575;DHT22;38468;48.114;-1.684;2023-01-24T14:41:27;4.90;68.20
52575;DHT22;38468;48.114;-1.684;2023-01-24T14:43:38;4.90;68.50
52575;DHT22;38468;48.114;-1.684;2023-01-24T14:45:39;5.00;68.30
52575;DHT22;38468;48.114;-1.684;2023-01-24T14:47:47;4.90;68.20
52575;DHT22;38468;48.114;-1.684;2023-01-24T14:49:57;5.00;68.30
52575;DHT22;38468;48.114;-1.684;2023-01-24T14:51:59;5.00;68.00
52575;DHT22;38468;48.114;-1.684;2023-01-24T14:53:59;4.90;68.20
52575;DHT22;38468;48.114;-1.684;2023-01-24T14:56:10;4.90;68.20
52575;DHT22;38468;48.114;-1.684;2023-01-24T14:58:26;4.90;68.00